Wildwood Landing, Indiana
Current Conditions -  °F | °C
As of 6:15 PM on Friday 28 Nov 2014 (Local Time) from KANQ Reporting Station
Broken Clouds Broken Clouds  
Wind Chill: 18°   Ceiling: 10000
Heat Index: 27°   Visibility: 10mi
Dew Point: 19°   Wind: 8mph
Humidity: 74%   Direction: 150°SSE
Pressure: 30.08"   Gusts: NA
Location:  41.5814°N, 85.1996°W
Report Text: KANQ 282315Z AUTO 15007KT 10SM FEW065 BKN100 M03/M07 A3008 RMK
Loading
Personal Weather Stations






























Interactive Weather Map New forecast layout! Learn more

10-Day Weather Forecast

Advertisements
Track Severe Weather on mobile